Time;durP1;ratioP1;P1;durP2;ratioP2;P2;SDS_P1;SDS_P2;PMS_P1;PMS_P2;Temp;Humidity;BMP_temperature;BMP_pressure;BME280_temperature;BME280_humidity;BME280_pressure;Samples;Min_cycle;Max_cycle;Signal;HPM_P1;HPM_P2
2021/06/09 00:01:38;;;;;;;2.70;2.38;;;;;;;19.21;66.02;100641.66;5005151;28;102413;-67
2021/06/09 00:04:04;;;;;;;3.17;2.83;;;;;;;19.22;66.29;100636.97;4999686;28;104060;-67
2021/06/09 00:06:32;;;;;;;3.55;2.47;;;;;;;19.20;66.20;100634.53;4996486;28;102476;-67
2021/06/09 00:08:58;;;;;;;3.60;2.30;;;;;;;19.22;66.33;100634.19;5004605;28;102564;-67
2021/06/09 00:11:25;;;;;;;3.17;2.65;;;;;;;19.21;66.33;100632.59;4996123;28;102583;-67
2021/06/09 00:13:54;;;;;;;3.65;2.53;;;;;;;19.21;65.96;100641.66;4994022;28;104159;-66
2021/06/09 00:16:21;;;;;;;3.63;2.40;;;;;;;19.21;66.56;100635.34;5000330;28;102315;-67
2021/06/09 00:18:48;;;;;;;3.42;2.50;;;;;;;19.20;66.35;100642.00;4997836;28;101991;-67
2021/06/09 00:21:15;;;;;;;3.28;2.60;;;;;;;19.20;66.24;100636.50;5002668;28;102572;-67
2021/06/09 00:23:42;;;;;;;2.70;2.50;;;;;;;19.20;66.51;100636.50;4996190;28;102575;-67
2021/06/09 00:26:09;;;;;;;2.78;2.50;;;;;;;19.19;66.16;100635.69;4996490;28;102517;-67
2021/06/09 00:28:36;;;;;;;3.08;2.55;;;;;;;19.19;66.45;100624.66;4997896;28;102707;-67
2021/06/09 00:31:06;;;;;;;3.20;2.50;;;;;;;19.19;66.29;100623.84;4996938;28;102531;-67
2021/06/09 00:33:33;;;;;;;3.47;2.20;;;;;;;19.18;66.45;100617.50;4995907;28;104027;-67
2021/06/09 00:36:00;;;;;;;3.13;2.10;;;;;;;19.18;66.23;100627.72;4996898;28;102686;-67
2021/06/09 00:38:28;;;;;;;3.20;2.47;;;;;;;19.18;66.51;100630.50;4996945;28;102251;-67
2021/06/09 00:40:56;;;;;;;2.63;2.40;;;;;;;19.17;66.54;100620.59;4999117;28;102616;-67
2021/06/09 00:43:24;;;;;;;3.75;2.55;;;;;;;19.17;66.15;100621.41;4999627;28;104036;-67
2021/06/09 00:45:54;;;;;;;2.57;2.27;;;;;;;19.17;66.12;100626.13;5000470;28;102373;-67
2021/06/09 00:48:26;;;;;;;4.88;2.80;;;;;;;19.18;66.24;100630.50;5006587;28;102081;-67
2021/06/09 00:50:53;;;;;;;3.35;2.58;;;;;;;19.17;66.56;100632.44;5007196;28;102306;-67
2021/06/09 00:53:29;;;;;;;3.10;2.50;;;;;;;19.16;65.99;100616.25;5006702;28;103732;-67
2021/06/09 00:55:57;;;;;;;3.60;2.50;;;;;;;19.16;66.41;100622.56;5007192;28;103140;-67
2021/06/09 00:58:24;;;;;;;2.95;2.28;;;;;;;19.16;66.27;100630.03;5007842;28;102693;-67
2021/06/09 01:00:53;;;;;;;3.05;2.65;;;;;;;19.16;66.27;100630.84;5011278;28;102410;-67
2021/06/09 01:03:22;;;;;;;3.00;2.35;;;;;;;19.15;66.56;100623.72;5002914;28;103864;-67
2021/06/09 01:05:49;;;;;;;3.45;2.60;;;;;;;19.15;66.21;100628.41;5005276;28;102181;-67
2021/06/09 01:08:16;;;;;;;3.97;2.55;;;;;;;19.15;66.18;100628.41;5006489;28;102070;-67
2021/06/09 01:10:46;;;;;;;2.88;2.40;;;;;;;19.15;66.70;100622.91;5010081;28;102388;-67
2021/06/09 01:13:12;;;;;;;4.93;2.70;;;;;;;19.15;66.63;100620.16;5002118;28;104021;-67
2021/06/09 01:15:40;;;;;;;3.08;2.60;;;;;;;19.14;66.33;100624.81;5001754;28;102494;-67
2021/06/09 01:18:07;;;;;;;3.60;2.30;;;;;;;19.14;66.70;100624.03;4995646;28;102616;-67
2021/06/09 01:20:36;;;;;;;3.40;2.55;;;;;;;19.14;66.74;100621.25;5008670;28;102768;-67
2021/06/09 01:23:04;;;;;;;5.03;2.33;;;;;;;19.14;66.23;100611.03;5022215;27;103901;-68
2021/06/09 01:25:32;;;;;;;4.75;2.47;;;;;;;19.13;66.53;100617.69;5012752;28;102644;-68
2021/06/09 01:28:00;;;;;;;3.70;2.60;;;;;;;19.13;66.87;100620.47;5002720;28;102706;-67
2021/06/09 01:30:26;;;;;;;3.58;2.42;;;;;;;19.13;66.47;100614.94;5009076;28;102470;-68
2021/06/09 01:32:53;;;;;;;2.88;2.10;;;;;;;19.12;66.26;100623.56;5014456;28;104075;-67
2021/06/09 01:35:20;;;;;;;3.85;2.50;;;;;;;19.13;66.57;100625.16;5006188;28;102126;-67
2021/06/09 01:37:47;;;;;;;4.22;3.17;;;;;;;19.12;66.50;100629.88;4996822;28;102627;-67
2021/06/09 01:40:17;;;;;;;3.33;2.40;;;;;;;19.12;66.33;100629.06;5009468;28;102582;-67
2021/06/09 01:42:44;;;;;;;5.25;2.85;;;;;;;19.12;66.65;100637.34;5008587;28;104750;-67
2021/06/09 01:45:15;;;;;;;2.22;2.13;;;;;;;19.11;66.35;100630.19;5010225;28;102581;-67
2021/06/09 01:47:42;;;;;;;4.07;2.47;;;;;;;19.12;66.63;100634.59;5008329;28;102719;-67
2021/06/09 01:50:11;;;;;;;2.83;2.50;;;;;;;19.12;66.32;100640.13;5006421;28;102164;-67
2021/06/09 01:52:38;;;;;;;3.88;2.58;;;;;;;19.11;66.77;100632.94;4998489;28;102778;-67
2021/06/09 01:55:08;;;;;;;3.78;3.10;;;;;;;19.10;66.61;100642.38;5011045;28;102077;-67
2021/06/09 01:57:37;;;;;;;5.97;2.90;;;;;;;19.10;66.20;100647.91;5006713;28;102218;-67
2021/06/09 02:00:06;;;;;;;4.43;2.47;;;;;;;19.10;66.65;100642.38;5009372;28;102416;-68
2021/06/09 02:02:33;;;;;;;5.47;2.50;;;;;;;19.10;66.37;100639.63;5004318;28;103669;-67
2021/06/09 02:05:00;;;;;;;3.72;2.30;;;;;;;19.10;66.55;100634.09;5007742;28;102104;-67
2021/06/09 02:07:34;;;;;;;4.80;2.35;;;;;;;19.10;66.28;100631.34;5007655;28;102534;-67
2021/06/09 02:10:04;;;;;;;4.78;2.38;;;;;;;19.10;66.66;100645.13;5009215;28;102682;-67
2021/06/09 02:12:31;;;;;;;2.45;2.25;;;;;;;19.09;66.38;100649.03;5006955;28;104212;-67
2021/06/09 02:14:59;;;;;;;3.83;2.47;;;;;;;19.09;66.35;100646.28;5009461;28;102461;-67
2021/06/09 02:17:26;;;;;;;4.00;2.63;;;;;;;19.09;66.62;100652.59;5009023;28;102487;-67
2021/06/09 02:19:53;;;;;;;3.42;2.40;;;;;;;19.09;66.41;100647.09;5007205;28;102594;-67
2021/06/09 02:22:19;;;;;;;4.45;2.60;;;;;;;19.08;66.51;100651.00;5011071;28;102756;-67
2021/06/09 02:24:46;;;;;;;4.10;2.55;;;;;;;19.08;66.59;100647.44;5009679;28;102196;-67
2021/06/09 02:27:13;;;;;;;4.85;3.03;;;;;;;19.08;66.32;100639.16;5007963;28;102049;-67
2021/06/09 02:29:39;;;;;;;3.30;2.72;;;;;;;19.09;66.63;100646.28;5006301;28;102611;-67
2021/06/09 02:32:08;;;;;;;4.57;2.50;;;;;;;19.08;66.83;100644.69;5007040;28;103859;-67
2021/06/09 02:34:37;;;;;;;3.95;2.92;;;;;;;19.07;66.54;100645.78;5019378;28;102584;-67
2021/06/09 02:37:04;;;;;;;3.83;2.40;;;;;;;19.08;66.32;100652.94;4999796;28;102462;-67
2021/06/09 02:39:30;;;;;;;4.65;2.60;;;;;;;19.08;66.36;100656.50;5007716;28;102772;-67
2021/06/09 02:41:57;;;;;;;23.92;3.03;;;;;;;19.08;66.30;100655.72;5005688;28;103757;-67
2021/06/09 02:44:23;;;;;;;2.92;2.63;;;;;;;19.07;66.29;100651.31;4998457;28;103157;-67
2021/06/09 02:46:53;;;;;;;3.30;2.45;;;;;;;19.07;66.39;100649.34;5003244;28;102386;-67
2021/06/09 02:49:25;;;;;;;2.65;2.40;;;;;;;19.07;66.37;100654.06;5001921;28;102851;-67
2021/06/09 02:51:58;;;;;;;4.22;2.50;;;;;;;19.07;66.69;100651.31;5007462;28;102817;-67
2021/06/09 02:54:32;;;;;;;2.78;2.28;;;;;;;19.07;66.36;100648.56;5008915;28;102189;-67
2021/06/09 02:57:05;;;;;;;4.38;2.75;;;;;;;19.06;66.70;100646.94;5001884;28;102380;-67
2021/06/09 02:59:44;;;;;;;4.65;2.85;;;;;;;19.07;66.70;100654.88;5007595;28;102228;-67
2021/06/09 03:02:20;;;;;;;2.50;2.30;;;;;;;19.06;66.55;100652.47;5007746;28;104024;-67
2021/06/09 03:04:51;;;;;;;4.03;2.58;;;;;;;19.08;66.47;100666.75;4996512;28;102315;-67
2021/06/09 03:07:23;;;;;;;2.65;2.45;;;;;;;19.06;66.94;100664.28;5008522;28;102357;-67
2021/06/09 03:10:02;;;;;;;1.88;1.77;;;;;;;19.07;67.14;100665.09;5002767;28;102375;-66
2021/06/09 03:12:41;;;;;;;3.08;2.33;;;;;;;19.06;66.90;100663.50;5003628;28;103899;-67
2021/06/09 03:15:10;;;;;;;2.63;2.20;;;;;;;19.07;66.63;100665.09;5009309;28;102176;-68
2021/06/09 03:17:46;;;;;;;3.35;2.22;;;;;;;19.07;66.74;100662.34;5009395;28;102332;-67
2021/06/09 03:20:24;;;;;;;3.28;2.53;;;;;;;19.06;66.62;100658.78;5023785;28;102501;-67
2021/06/09 03:23:03;;;;;;;2.90;2.60;;;;;;;19.06;66.79;100669.00;5007157;28;103916;-67
2021/06/09 03:25:35;;;;;;;3.65;2.22;;;;;;;19.05;67.03;100662.69;5006806;28;102379;-67
2021/06/09 03:28:14;;;;;;;6.45;2.63;;;;;;;19.07;66.49;100665.09;5006957;28;102116;-67
2021/06/09 03:30:46;;;;;;;3.20;2.17;;;;;;;19.06;66.53;100663.50;5004338;28;102258;-67
2021/06/09 03:33:17;;;;;;;2.78;2.13;;;;;;;19.06;66.61;100663.50;5008024;28;102726;-67
2021/06/09 03:35:50;;;;;;;4.30;2.58;;;;;;;19.06;67.01;100666.25;4999594;28;102593;-67
2021/06/09 03:38:24;;;;;;;4.80;2.17;;;;;;;19.05;66.76;100662.69;5007766;28;102411;-67
2021/06/09 03:40:58;;;;;;;5.32;2.60;;;;;;;19.06;66.69;100657.97;5006501;28;102305;-67
2021/06/09 03:43:27;;;;;;;2.35;2.15;;;;;;;19.06;67.05;100666.25;4995860;28;104074;-67
2021/06/09 03:45:54;;;;;;;;;;;;;;;19.06;66.70;100661.53;4996517;28;102193;-67
2021/06/09 03:48:24;;;;;;;2.47;2.13;;;;;;;19.06;67.04;100669.00;5005680;28;102493;-67
2021/06/09 03:50:54;;;;;;;2.45;2.22;;;;;;;19.06;67.01;100657.97;5003881;28;103673;-67
2021/06/09 03:53:22;;;;;;;2.75;2.17;;;;;;;19.07;67.15;100665.09;5003858;28;103845;-67
2021/06/09 03:55:51;;;;;;;2.28;2.08;;;;;;;19.07;66.96;100659.59;5022286;28;102675;-67
2021/06/09 03:58:19;;;;;;;3.15;2.45;;;;;;;19.06;67.05;100652.47;5008401;28;102425;-67
2021/06/09 04:00:48;;;;;;;3.67;2.20;;;;;;;19.07;67.03;100654.06;5006202;28;102264;-67
2021/06/09 04:03:19;;;;;;;1.98;1.80;;;;;;;19.07;67.28;100654.88;5007639;28;103890;-67
2021/06/09 04:05:47;;;;;;;2.30;2.10;;;;;;;19.07;67.46;100657.63;5002223;28;102062;-67
2021/06/09 04:08:16;;;;;;;2.20;2.00;;;;;;;19.08;67.43;100655.72;5007460;28;102623;-67
2021/06/09 04:10:43;;;;;;;;;;;;;;;19.08;67.62;100647.44;5004887;28;102433;-67
2021/06/09 04:13:10;;;;;;;2.75;1.98;;;;;;;19.08;67.46;100650.19;5005878;28;103813;-67
2021/06/09 04:15:38;;;;;;;4.25;2.40;;;;;;;19.08;67.20;100661.22;5004412;28;102584;-67
2021/06/09 04:18:07;;;;;;;2.50;2.30;;;;;;;19.08;67.12;100647.44;5025965;28;102599;-67
2021/06/09 04:20:34;;;;;;;2.75;2.10;;;;;;;19.08;67.34;100651.00;5005606;28;102574;-67
2021/06/09 04:23:01;;;;;;;3.45;2.13;;;;;;;19.09;67.20;100651.81;5007763;28;103938;-67
2021/06/09 04:25:30;;;;;;;2.30;2.10;;;;;;;19.10;67.54;100653.41;5010052;28;102626;-67
2021/06/09 04:27:58;;;;;;;2.47;1.95;;;;;;;19.10;67.65;100642.38;5010570;28;102528;-67
2021/06/09 04:30:25;;;;;;;3.75;2.45;;;;;;;19.10;67.28;100650.66;5005746;28;102536;-67
2021/06/09 04:32:55;;;;;;;2.40;2.20;;;;;;;19.10;67.53;100647.91;5011439;28;104299;-67
2021/06/09 04:35:23;;;;;;;2.20;2.00;;;;;;;19.10;67.48;100647.91;5006646;28;102991;-67
2021/06/09 04:37:50;;;;;;;;;;;;;;;19.11;67.44;100646.75;5009098;28;102551;-67
2021/06/09 04:40:20;;;;;;;4.25;2.20;;;;;;;19.10;67.62;100647.91;5008118;28;102233;-67
2021/06/09 04:42:50;;;;;;;4.07;2.40;;;;;;;19.11;67.62;100655.03;5010486;28;103865;-67
2021/06/09 04:45:18;;;;;;;2.80;2.00;;;;;;;19.11;67.50;100655.03;5011451;28;102471;-67
2021/06/09 04:47:45;;;;;;;2.25;2.08;;;;;;;19.12;67.72;100653.91;5009516;28;102794;-67
2021/06/09 04:50:16;;;;;;;2.75;2.30;;;;;;;19.12;67.76;100660.22;4998965;28;102185;-68
2021/06/09 04:52:42;;;;;;;3.17;2.03;;;;;;;19.13;67.07;100663.78;5004950;28;103947;-67
2021/06/09 04:55:10;;;;;;;2.13;1.92;;;;;;;19.14;67.33;100654.38;5009638;28;102356;-67
2021/06/09 04:57:36;;;;;;;2.20;2.10;;;;;;;19.15;67.38;100661.53;5001401;28;102459;-67
2021/06/09 05:00:08;;;;;;;2.67;2.20;;;;;;;19.15;67.30;100656.00;5005922;28;102505;-66
2021/06/09 05:02:34;;;;;;;3.15;2.33;;;;;;;19.16;67.64;100663.94;4998477;28;102986;-67
2021/06/09 05:05:01;;;;;;;4.75;2.58;;;;;;;19.16;67.10;100652.91;5008678;28;102489;-67
2021/06/09 05:07:28;;;;;;;2.80;2.20;;;;;;;19.18;67.14;100660.84;5005657;28;102724;-67
2021/06/09 05:09:54;;;;;;;2.92;2.40;;;;;;;19.18;67.49;100664.41;5006411;28;103944;-67
2021/06/09 05:12:27;;;;;;;4.22;2.50;;;;;;;19.21;67.30;100657.41;5004089;28;103900;-66
2021/06/09 05:14:58;;;;;;;9.40;3.30;;;;;;;19.28;67.47;100654.97;5010278;28;102630;-70
2021/06/09 05:17:29;;;;;;;18.15;4.22;;;;;;;19.36;66.71;100653.28;5002342;28;103485;-63
2021/06/09 05:19:59;;;;;;;9.68;3.80;;;;;;;19.43;66.30;100651.63;5025330;28;102438;-62
2021/06/09 05:22:30;;;;;;;14.45;3.90;;;;;;;19.53;65.99;100655.16;4993605;28;103843;-63
2021/06/09 05:25:02;;;;;;;10.10;3.75;;;;;;;19.60;66.18;100649.94;5006965;28;102199;-62
2021/06/09 05:27:30;;;;;;;14.10;4.03;;;;;;;19.70;66.12;100649.56;4987468;28;102573;-63
2021/06/09 05:29:58;;;;;;;111.47;12.98;;;;;;;19.77;66.22;100655.38;5006109;28;102638;-62
2021/06/09 05:32:28;;;;;;;35.72;6.63;;;;;;;19.84;66.26;100644.59;5007263;28;103966;-62
2021/06/09 05:34:56;;;;;;;21.13;5.90;;;;;;;19.90;66.07;100643.25;5007452;28;102050;-62
2021/06/09 05:37:25;;;;;;;15.15;5.40;;;;;;;19.98;66.02;100643.53;5004865;28;104023;-62
2021/06/09 05:39:58;;;;;;;11.35;4.00;;;;;;;20.04;65.72;100654.03;4997314;28;102800;-69
2021/06/09 05:42:25;;;;;;;22.85;4.63;;;;;;;20.09;65.52;100651.09;5003358;28;103944;-65
2021/06/09 05:44:53;;;;;;;21.45;4.38;;;;;;;20.13;65.12;100645.69;5002193;28;102800;-66
2021/06/09 05:47:21;;;;;;;21.23;5.20;;;;;;;20.16;65.43;100653.31;5004847;28;102636;-66
2021/06/09 05:50:03;;;;;;;138.90;18.88;;;;;;;20.20;65.75;100651.50;5013004;28;102381;-67
2021/06/09 05:52:30;;;;;;;64.25;11.75;;;;;;;20.26;65.62;100655.66;5010097;28;104138;-68
2021/06/09 05:54:57;;;;;;;33.80;5.85;;;;;;;20.30;65.41;100662.13;5004993;28;103552;-68
2021/06/09 05:57:23;;;;;;;14.13;4.50;;;;;;;20.33;65.09;100655.91;5012461;28;102592;-66
2021/06/09 05:59:50;;;;;;;11.32;3.75;;;;;;;20.36;65.07;100660.75;5009742;28;103181;-66
2021/06/09 06:02:17;;;;;;;12.55;4.25;;;;;;;20.37;65.09;100656.84;5002546;28;103305;-67
2021/06/09 06:04:45;;;;;;;11.43;3.97;;;;;;;20.39;65.18;100660.09;5007309;28;102671;-67
2021/06/09 06:07:13;;;;;;;19.33;5.00;;;;;;;20.43;65.02;100654.69;5006374;28;102229;-66
2021/06/09 06:09:40;;;;;;;25.53;5.37;;;;;;;20.47;64.89;100660.34;5009894;28;103600;-67
2021/06/09 06:12:08;;;;;;;12.65;4.53;;;;;;;20.53;64.74;100656.25;5006976;28;103092;-68
2021/06/09 06:14:35;;;;;;;18.37;4.20;;;;;;;20.55;64.68;100662.25;5007186;28;103216;-66
2021/06/09 06:17:03;;;;;;;16.80;3.88;;;;;;;20.58;64.96;100659.59;5005598;28;102608;-67
2021/06/09 06:19:33;;;;;;;15.55;4.28;;;;;;;20.56;65.13;100666.66;5008842;28;102259;-67
2021/06/09 06:22:00;;;;;;;6.53;3.30;;;;;;;20.56;65.22;100661.13;4993735;28;103837;-68
2021/06/09 06:24:29;;;;;;;8.23;3.92;;;;;;;20.49;65.42;100667.16;4992502;28;102692;-68
2021/06/09 06:26:56;;;;;;;7.53;3.88;;;;;;;20.43;65.31;100670.47;4995422;28;102639;-68
2021/06/09 06:29:23;;;;;;;9.70;3.72;;;;;;;20.36;65.20;100663.53;4996366;28;102892;-68
2021/06/09 06:31:50;;;;;;;10.13;4.03;;;;;;;20.31;65.35;100660.97;4996361;28;104312;-68
2021/06/09 06:34:20;;;;;;;13.40;4.35;;;;;;;20.27;65.47;100651.75;4994627;28;102671;-68
2021/06/09 06:36:48;;;;;;;11.90;4.63;;;;;;;20.22;65.51;100651.94;4999771;28;102259;-68
2021/06/09 06:39:15;;;;;;;8.93;3.95;;;;;;;20.19;65.54;100652.63;4999681;28;102232;-68
2021/06/09 06:41:43;;;;;;;9.07;4.28;;;;;;;20.18;65.56;100648.25;4996932;28;103882;-67
2021/06/09 06:44:11;;;;;;;9.85;3.92;;;;;;;20.16;65.55;100656.06;4992972;28;102642;-67
2021/06/09 06:46:38;;;;;;;9.57;4.37;;;;;;;20.13;65.84;100657.56;4998200;28;102713;-67
2021/06/09 06:49:07;;;;;;;6.47;4.18;;;;;;;20.11;65.71;100647.97;4994555;28;102519;-67
2021/06/09 06:51:33;;;;;;;12.40;4.72;;;;;;;20.10;65.72;100651.88;5001710;28;102804;-67
2021/06/09 06:54:01;;;;;;;15.13;4.72;;;;;;;20.09;65.76;100644.75;5002572;28;102813;-67
2021/06/09 06:56:28;;;;;;;11.00;4.55;;;;;;;20.07;65.79;100644.28;4995544;28;102574;-67
2021/06/09 06:58:56;;;;;;;11.10;4.80;;;;;;;20.05;66.10;100649.31;4999454;28;102573;-68
2021/06/09 07:01:29;;;;;;;15.83;4.87;;;;;;;20.04;66.10;100653.22;4997958;28;104033;-67
2021/06/09 07:03:56;;;;;;;18.88;5.45;;;;;;;20.03;65.93;100646.09;5006385;28;102375;-68
2021/06/09 07:06:23;;;;;;;18.38;4.95;;;;;;;20.02;66.05;100641.72;4996557;28;102245;-68
2021/06/09 07:08:50;;;;;;;25.35;4.85;;;;;;;20.02;65.88;100645.28;4999911;28;103410;-68
2021/06/09 07:11:17;;;;;;;19.20;4.80;;;;;;;19.99;65.95;100645.97;4998346;28;103923;-68
2021/06/09 07:13:51;;;;;;;18.02;5.38;;;;;;;19.99;66.07;100645.97;4997105;28;102384;-68
2021/06/09 07:16:21;;;;;;;28.52;5.00;;;;;;;20.00;65.88;100644.00;4997769;28;102655;-69
2021/06/09 07:18:49;;;;;;;13.48;4.82;;;;;;;19.98;66.24;100646.28;4997423;28;103837;-68
2021/06/09 07:21:17;;;;;;;11.60;4.88;;;;;;;19.96;66.04;100646.63;4997711;28;104156;-68
2021/06/09 07:23:44;;;;;;;17.80;5.23;;;;;;;19.97;66.32;100641.91;4998465;28;102893;-68
2021/06/09 07:26:12;;;;;;;15.05;4.95;;;;;;;19.96;66.01;100643.06;4997376;28;103109;-68
2021/06/09 07:28:41;;;;;;;20.27;4.73;;;;;;;19.96;66.13;100646.63;5002768;28;103943;-68
2021/06/09 07:31:08;;;;;;;;;;;;;;;19.94;66.34;100654.44;4998621;28;102816;-68
2021/06/09 07:33:36;;;;;;;16.40;4.93;;;;;;;19.93;66.10;100659.16;5000689;28;103114;-68
2021/06/09 07:36:06;;;;;;;10.73;4.55;;;;;;;19.93;66.47;100659.16;5014366;27;102376;-68
2021/06/09 07:38:40;;;;;;;11.52;4.47;;;;;;;19.93;66.11;100652.81;5013684;28;102765;-68
2021/06/09 07:41:09;;;;;;;19.83;5.07;;;;;;;19.91;66.17;100644.88;4998015;28;105340;-68
2021/06/09 07:43:38;;;;;;;6.97;4.55;;;;;;;19.92;66.24;100659.50;5005701;28;102252;-68
2021/06/09 07:46:06;;;;;;;;;;;;;;;19.91;66.29;100666.19;5006841;28;102357;-68
2021/06/09 07:48:35;;;;;;;6.22;4.22;;;;;;;19.90;66.22;100662.56;5002288;28;102564;-68
2021/06/09 07:51:06;;;;;;;9.10;4.22;;;;;;;19.90;66.08;100665.34;4999552;28;103824;-68
2021/06/09 07:53:34;;;;;;;11.75;3.78;;;;;;;19.88;66.19;100662.13;5001585;28;102692;-68
2021/06/09 07:56:02;;;;;;;7.03;4.30;;;;;;;19.89;66.39;100662.94;5000634;28;102593;-68
2021/06/09 07:58:32;;;;;;;11.15;4.75;;;;;;;19.89;66.49;100669.25;5003953;28;102903;-68
2021/06/09 08:01:01;;;;;;;10.43;4.28;;;;;;;19.87;66.71;100668.81;4999303;28;103893;-68
2021/06/09 08:03:29;;;;;;;10.57;4.35;;;;;;;19.88;66.39;100666.84;5008271;28;102550;-68
2021/06/09 08:05:57;;;;;;;12.45;4.90;;;;;;;19.87;66.58;100660.50;5003967;28;102760;-69
2021/06/09 08:08:25;;;;;;;8.85;4.35;;;;;;;19.87;66.86;100666.03;5002533;28;102383;-68
2021/06/09 08:10:52;;;;;;;8.05;4.15;;;;;;;19.87;66.53;100665.19;4999267;28;104035;-68
2021/06/09 08:13:19;;;;;;;8.77;3.85;;;;;;;19.87;66.40;100666.03;5002822;28;102585;-68
2021/06/09 08:15:57;;;;;;;5.20;3.95;;;;;;;19.86;66.25;100669.91;5002147;28;103385;-68
2021/06/09 08:18:23;;;;;;;5.95;4.72;;;;;;;19.86;66.59;100669.91;5005429;28;102779;-68
2021/06/09 08:21:05;;;;;;;8.32;4.20;;;;;;;19.84;66.54;100666.69;4997724;28;104208;-68
2021/06/09 08:23:34;;;;;;;6.88;4.55;;;;;;;19.84;66.22;100669.47;5002801;28;102725;-69
2021/06/09 08:26:01;;;;;;;6.03;4.05;;;;;;;19.84;66.43;100666.69;5006035;28;102280;-68
2021/06/09 08:28:33;;;;;;;;;;;;;;;19.85;66.62;100668.31;5004889;28;102605;-67
2021/06/09 08:31:00;;;;;;;22.02;4.90;;;;;;;19.89;66.73;100663.72;5001963;28;102495;-69
2021/06/09 08:33:27;;;;;;;14.27;4.15;;;;;;;19.93;66.32;100667.44;5004090;28;102672;-66
2021/06/09 08:35:53;;;;;;;19.23;4.80;;;;;;;19.92;66.42;100676.88;5000484;28;105752;-67
2021/06/09 08:38:20;;;;;;;11.52;4.75;;;;;;;19.90;66.53;100673.63;5006050;28;102353;-67
2021/06/09 08:40:50;;;;;;;11.07;4.05;;;;;;;19.90;66.33;100670.88;5006076;28;102416;-67
2021/06/09 08:43:18;;;;;;;12.10;4.50;;;;;;;19.89;66.36;100674.78;5008098;28;102244;-67
2021/06/09 08:45:47;;;;;;;;;;;;;;;19.89;66.33;100669.25;5007633;28;102470;-67
2021/06/09 08:48:14;;;;;;;13.10;4.43;;;;;;;19.88;66.66;100673.16;5000717;28;102239;-67
2021/06/09 08:50:42;;;;;;;10.38;4.85;;;;;;;19.87;66.51;100677.09;4999828;28;103856;-67
2021/06/09 08:53:10;;;;;;;11.00;4.65;;;;;;;19.86;66.64;100678.22;5003880;28;103144;-67
2021/06/09 08:55:38;;;;;;;6.68;4.45;;;;;;;19.85;66.37;100668.31;5003696;28;102506;-67
2021/06/09 08:58:11;;;;;;;7.20;4.53;;;;;;;19.86;66.44;100667.16;4999619;28;103298;-67
2021/06/09 09:00:39;;;;;;;29.63;5.07;;;;;;;20.15;65.35;100671.00;4995786;28;104067;-68
2021/06/09 09:03:06;;;;;;;14.35;4.88;;;;;;;20.13;65.49;100668.59;5000120;28;102759;-69
2021/06/09 09:05:35;;;;;;;20.20;5.50;;;;;;;20.08;65.73;100671.56;5008680;28;102295;-69
2021/06/09 09:08:04;;;;;;;20.63;5.93;;;;;;;20.06;65.84;100662.00;5001982;28;102284;-68
2021/06/09 09:10:31;;;;;;;20.17;5.00;;;;;;;20.04;66.06;100664.28;5002389;28;103980;-68
2021/06/09 09:12:58;;;;;;;38.70;6.10;;;;;;;20.04;66.47;100672.56;5001615;28;102402;-67
2021/06/09 09:15:26;;;;;;;25.73;5.05;;;;;;;20.06;65.70;100678.59;4998818;28;102561;-66
2021/06/09 09:17:54;;;;;;;312.40;20.77;;;;;;;20.08;65.61;100660.50;5005799;28;102740;-75
2021/06/09 09:20:24;;;;;;;131.07;15.10;;;;;;;20.05;65.63;100671.41;5004530;28;102691;-75
2021/06/09 09:22:52;;;;;;;215.18;23.45;;;;;;;20.04;65.70;100675.34;5001950;28;102293;-75
2021/06/09 09:25:21;;;;;;;123.63;14.98;;;;;;;20.00;65.59;100674.38;5005929;28;104086;-75
2021/06/09 09:27:56;;;;;;;80.00;11.75;;;;;;;19.99;66.06;100678.31;5004328;28;102756;-75
2021/06/09 09:30:24;;;;;;;65.15;9.70;;;;;;;19.97;66.22;100669.53;4999603;28;104022;-75
2021/06/09 09:33:04;;;;;;;69.33;10.67;;;;;;;19.93;66.31;100675.72;5006138;28;105369;-75
2021/06/09 09:35:33;;;;;;;77.30;10.00;;;;;;;19.92;65.91;100678.84;5006190;28;102420;-75
2021/06/09 09:38:20;;;;;;;77.07;9.60;;;;;;;19.90;66.09;100670.88;5002557;28;103450;-75
2021/06/09 09:41:05;;;;;;;62.65;11.68;;;;;;;19.89;65.92;100671.22;5000202;28;103942;-74
2021/06/09 09:43:51;;;;;;;49.03;9.23;;;;;;;19.86;66.12;100675.44;5000953;28;104101;-75
2021/06/09 09:46:20;;;;;;;58.90;9.85;;;;;;;19.85;66.33;100668.31;4996399;28;102326;-74
2021/06/09 09:49:05;;;;;;;54.47;10.05;;;;;;;19.85;66.39;100676.59;5003741;28;102384;-75
2021/06/09 09:51:34;;;;;;;61.47;9.05;;;;;;;19.83;66.25;100676.09;5003590;28;102773;-75
2021/06/09 09:54:03;;;;;;;52.85;10.00;;;;;;;19.82;66.20;100663.44;5017342;28;102507;-74
2021/06/09 09:56:31;;;;;;;19.42;5.90;;;;;;;19.93;65.40;100666.63;5002737;28;102526;-75
2021/06/09 09:59:04;;;;;;;15.50;5.15;;;;;;;20.27;64.57;100662.81;5000360;28;102668;-74
2021/06/09 10:01:32;;;;;;;49.10;6.43;;;;;;;20.53;64.07;100661.78;4999827;28;103739;-74
2021/06/09 10:04:02;;;;;;;19.50;4.35;;;;;;;20.68;63.14;100663.91;5003008;28;104188;-74
2021/06/09 10:06:31;;;;;;;14.00;3.92;;;;;;;20.82;62.64;100653.34;5001662;28;102308;-75
2021/06/09 10:09:07;;;;;;;20.35;4.70;;;;;;;20.70;63.41;100658.03;5000112;28;103356;-74
2021/06/09 10:11:38;;;;;;;12.48;3.90;;;;;;;20.56;63.97;100653.63;4995092;28;103179;-74
2021/06/09 10:14:21;;;;;;;23.35;4.55;;;;;;;20.71;62.98;100643.88;5001441;28;102431;-74
2021/06/09 10:16:52;;;;;;;176.98;18.85;;;;;;;20.89;61.95;100644.50;4998585;28;103232;-75
2021/06/09 10:19:20;;;;;;;121.63;8.68;;;;;;;20.94;61.97;100640.69;5002903;28;102512;-75
2021/06/09 10:21:49;;;;;;;9.45;2.83;;;;;;;20.95;61.79;100645.88;4999988;28;102751;-74
2021/06/09 10:24:16;;;;;;;22.38;4.13;;;;;;;20.80;62.53;100633.50;4999689;28;102781;-74
2021/06/09 10:26:52;;;;;;;8.75;3.50;;;;;;;20.70;62.90;100633.97;5004476;28;102100;-74
2021/06/09 10:29:21;;;;;;;7.13;3.60;;;;;;;20.60;63.25;100637.16;5001898;28;103736;-74
2021/06/09 10:31:50;;;;;;;8.52;3.63;;;;;;;20.53;63.78;100631.38;4997777;28;104060;-74
2021/06/09 10:34:18;;;;;;;10.43;3.72;;;;;;;20.47;63.97;100632.72;5000621;28;102431;-74
2021/06/09 10:36:48;;;;;;;6.05;3.75;;;;;;;20.39;64.00;100618.63;5002747;28;102318;-74
2021/06/09 10:39:15;;;;;;;6.10;4.45;;;;;;;20.35;64.08;100620.47;5002338;28;103470;-74
2021/06/09 10:41:44;;;;;;;10.48;4.65;;;;;;;20.29;64.33;100616.28;4994092;28;104195;-74
2021/06/09 10:44:17;;;;;;;9.65;4.03;;;;;;;20.25;64.66;100614.53;4998097;28;102750;-74
2021/06/09 10:46:45;;;;;;;9.93;4.65;;;;;;;20.20;64.60;100618.34;5007368;28;102302;-74
2021/06/09 10:49:15;;;;;;;8.73;4.00;;;;;;;20.16;64.66;100612.69;5008992;28;102433;-73
2021/06/09 10:51:42;;;;;;;17.95;5.32;;;;;;;20.13;64.91;100616.13;4997226;28;104337;-73
2021/06/09 10:54:12;;;;;;;12.43;4.50;;;;;;;20.12;64.98;100605.38;5001270;28;102112;-72
2021/06/09 10:56:40;;;;;;;5.82;3.95;;;;;;;20.10;64.82;100610.44;5005221;28;102788;-74
2021/06/09 10:59:07;;;;;;;8.82;4.85;;;;;;;20.06;64.96;100602.03;5000751;28;102399;-73
2021/06/09 11:01:34;;;;;;;10.15;4.07;;;;;;;20.04;65.14;100597.97;4999662;28;104029;-74
2021/06/09 11:04:01;;;;;;;7.00;4.00;;;;;;;20.03;65.13;100601.91;5005176;28;102093;-73
2021/06/09 11:06:35;;;;;;;11.05;4.10;;;;;;;20.00;65.01;100597.03;5007677;28;103413;-73
2021/06/09 11:09:19;;;;;;;11.15;4.22;;;;;;;19.97;65.20;100593.00;4999024;28;102183;-74
2021/06/09 11:11:47;;;;;;;11.55;4.43;;;;;;;19.96;65.20;100585.06;4997820;28;102767;-73
2021/06/09 11:14:21;;;;;;;13.45;4.20;;;;;;;19.93;65.41;100581.00;4998152;28;102647;-74
2021/06/09 11:16:51;;;;;;;6.90;4.10;;;;;;;19.91;65.33;100583.31;4992902;28;102511;-73
2021/06/09 11:19:38;;;;;;;8.45;4.50;;;;;;;19.89;65.29;100591.94;5007582;28;102728;-73
2021/06/09 11:22:24;;;;;;;6.22;4.10;;;;;;;19.88;65.39;100587.56;4997375;28;102650;-73
2021/06/09 11:25:13;;;;;;;8.52;4.43;;;;;;;19.88;65.56;100586.75;5007731;28;102093;-73